»·PEaware :: N5002T KSMX-KSBA

N5002T :: KSMX-KSBA

FLIGHT INFORMATION

Flight Status: Arrived
Operator: Privately registered:
United States
More flights under this callsign
Pilot: Hunter M. (19355)
Aircraft: CESSNA 172 SKYHAWK
(C172)
More flights by this aircraft type
Origin: KSMX Santa Maria Pub/Capt Hancock
United States
Destination: KSBA Santa Barbara Mun
United States
More flights between these airports :: More routes between these airports
Route: +GVO
File this flight plan on PilotEdge
Remarks:
Altitude:
(Current/Filed)
0ft
Speed:
(Current/Filed)
0kts
Departed: 11-Dec-18 10:24 AM
Arrived: 11-Dec-18 10:56 AM
Distance/Time
Traveled:
41nm/0:31
Distance/Time
To Go:
Arrived

Flight Plot

Page will automatically refresh every two minutes.


Map Options




Map Legend


Flown Route
Filed Route
Departure Airport
Arrival Airport
Navaid (VOR, NDB)
Fix

Horizontal Profiles

Position Reports

Time Latitude Longitude Heading Altitude Ground
Speed
11-Dec-18 10:06 34.892799 -120.454349 180 264ft 0kts
11-Dec-18 10:07 34.892799 -120.454349 180 264ft 0kts
11-Dec-18 10:08 34.892799 -120.454349 180 264ft 0kts
11-Dec-18 10:09 34.892799 -120.454349 180 264ft 0kts
11-Dec-18 10:10 34.892799 -120.454349 180 264ft 0kts
11-Dec-18 10:11 34.892799 -120.454349 180 264ft 0kts
11-Dec-18 10:12 34.892799 -120.454349 180 264ft 0kts
11-Dec-18 10:13 34.892799 -120.454349 180 264ft 0kts
11-Dec-18 10:14 34.892799 -120.454349 180 264ft 0kts
11-Dec-18 10:15 34.892799 -120.454349 180 264ft 0kts
11-Dec-18 10:16 34.892799 -120.454349 180 264ft 0kts
11-Dec-18 10:17 34.892933 -120.454378 90 264ft 6kts
11-Dec-18 10:18 34.892769 -120.453612 180 264ft 6kts
11-Dec-18 10:19 34.891769 -120.452947 96 264ft 8kts
11-Dec-18 10:20 34.891721 -120.448764 89 264ft 15kts
11-Dec-18 10:21 34.892203 -120.446578 49 264ft 6kts
11-Dec-18 10:22 34.892222 -120.446552 49 264ft 0kts
11-Dec-18 10:23 34.894388 -120.447751 314 264ft 52kts
11-Dec-18 10:24 34.912283 -120.460335 41 880ft 95kts
11-Dec-18 10:25 34.905321 -120.429697 112 1628ft 99kts
11-Dec-18 10:26 34.894221 -120.398464 112 2326ft 100kts
11-Dec-18 10:27 34.882537 -120.367764 112 3014ft 99kts
11-Dec-18 10:28 34.870524 -120.337703 112 3698ft 97kts
11-Dec-18 10:30 34.858610 -120.308553 113 4381ft 95kts
11-Dec-18 10:31 34.840817 -120.286930 152 5005ft 99kts
11-Dec-18 10:32 34.812834 -120.269312 152 4997ft 118kts
11-Dec-18 10:33 34.783767 -120.251088 152 4987ft 117kts
11-Dec-18 10:34 34.754720 -120.232921 153 4986ft 117kts
11-Dec-18 10:35 34.725841 -120.214653 153 4980ft 116kts
11-Dec-18 10:36 34.695979 -120.199569 162 4983ft 116kts
11-Dec-18 10:37 34.665329 -120.186524 161 4982ft 116kts
11-Dec-18 10:38 34.635682 -120.173714 161 4980ft 111kts
11-Dec-18 10:39 34.606540 -120.161148 162 4979ft 111kts
11-Dec-18 10:40 34.576986 -120.149588 163 4518ft 110kts
11-Dec-18 10:41 34.547496 -120.137990 163 4378ft 111kts
11-Dec-18 10:42 34.518378 -120.126528 163 4380ft 111kts
11-Dec-18 10:43 34.489015 -120.114993 163 4380ft 111kts
11-Dec-18 10:44 34.459535 -120.103435 163 3926ft 108kts
11-Dec-18 10:45 34.431103 -120.092279 163 3227ft 107kts
11-Dec-18 10:46 34.423036 -120.063790 83 2702ft 90kts
11-Dec-18 10:47 34.423610 -120.033044 86 2050ft 94kts
11-Dec-18 10:47 34.424207 -120.007869 86 1743ft 77kts
11-Dec-18 10:49 34.424859 -119.976650 89 1772ft 81kts
11-Dec-18 10:49 34.425620 -119.954403 88 1686ft 69kts
11-Dec-18 10:51 34.426421 -119.928071 95 1113ft 63kts
11-Dec-18 10:52 34.426785 -119.906977 92 840ft 65kts
11-Dec-18 10:52 34.427288 -119.888904 94 628ft 61kts
11-Dec-18 10:53 34.427353 -119.869062 90 277ft 52kts
11-Dec-18 10:54 34.427581 -119.851987 90 30ft 48kts
11-Dec-18 10:55 34.428112 -119.846048 55 13ft 10kts
11-Dec-18 10:56 34.428311 -119.845712 25 13ft 6kts
11-Dec-18 10:57 34.428941 -119.845802 329 13ft 0kts

Navigation Log

Ident Type
Flight plan parsing failed, navigation log unavailable